Terminal Aerodrome Forecast
Issued by NWS Twin Cities, MN

Home | Current Version | Previous Version | Text Only | Print | Product List | Glossary On
Versions: 1 2 3 4 5 6 7 8 9 10 11 12 13 14 15 16 17 18 19
000
FTUS43 KMPX 022343
TAFSTC
TAF
KSTC 022343Z 0300/0324 12005KT P6SM SCT150
     FM030600 11004KT 5SM BR FEW008
     FM030800 11004KT 1 1/2SM BR OVC006
     FM031500 13010KT P6SM SCT008 SCT015=

USA.gov is the U.S. government's official web portal to all federal, state and local government web resources and services.